Terminal Aerodrome Forecast
Issued by NWS Topeka, KS

Home | Current Version | Previous Version | Text Only | Print | Product List | Glossary Off
Versions: 1 2 3 4 5 6 7 8 9 10 11 12 13 14

006
FTUS43 KTOP 192320
TAFTOP
TAF
KTOP 192320Z 2000/2024 23003KT P6SM VCSH BKN120
     FM200200 VRB02KT P6SM SCT120
     FM201600 23007KT P6SM SCT150=

USA.gov is the U.S. government's official web portal to all federal, state and local government web resources and services.